Data for 07/25/2010

Time Sea-Level Adjusted Pressure Absolute Pressure Temperature Relative Humidity Dew Point   
(mb) (inHg) (mb) (inHg) (C) (F) (%) (C) (F)
00:05 1020 30.12 849 25.07 18 64.3 42 4.9 40.8
00:10 1020 30.12 849 25.07 17.7 63.8 42 4.8 40.7
00:15 1020 30.12 849 25.07 17.6 63.7 43 5 41
00:20 1020 30.12 849 25.07 17.8 64 42 4.7 40.5
00:25 1020 30.12 850 25.1 18.1 64.6 42 5.2 41.3
00:30 1020 30.12 850 25.1 18.4 65.1 43 5.6 42.1
00:35 1020 30.12 850 25.1 18 64.3 44 5.5 41.9
00:40 1020 30.12 850 25.1 17.8 64 43 5.1 41.2
00:45 1020 30.12 850 25.1 18 64.3 43 5.2 41.3
00:50 1020 30.12 850 25.1 18 64.4 43 5.4 41.8
00:55 1020 30.12 850 25.1 17.9 64.3 45 6 42.8
01:00 1021 30.15 850 25.1 17.7 63.9 45 5.8 42.5
01:05 1021 30.15 850 25.1 17.6 63.6 45 5.6 42.1
01:10 1021 30.15 850 25.1 17.9 64.2 44 5.5 42
01:15 1021 30.15 850 25.1 18.1 64.5 43 5.5 41.9
01:20 1021 30.15 850 25.1 17.9 64.2 44 5.6 42
01:25 1021 30.15 850 25.1 18 64.3 43 5.3 41.5
01:30 1021 30.15 850 25.1 17.6 63.6 45 5.6 42
01:35 1021 30.15 850 25.1 16.8 62.3 47 5.5 41.9
01:40 1020 30.12 850 25.1 16.4 61.5 48 5.4 41.7
01:45 1020 30.12 850 25.1 16.2 61.2 48 5.3 41.6
01:50 1021 30.15 850 25.1 16.3 61.3 48 5.3 41.5
01:55 1021 30.15 850 25.1 16.1 61 48 5.2 41.4
02:00 1020 30.12 850 25.1 16.1 60.9 48 5.1 41.2
02:05 1020 30.12 850 25.1 16.2 61.2 49 5.6 42.1
02:10 1020 30.12 850 25.1 16.2 61.2 49 5.7 42.2
02:15 1020 30.12 850 25.1 16 60.8 48 5.2 41.4
02:20 1020 30.12 850 25.1 15.8 60.4 49 5.1 41.1
02:25 1020 30.12 850 25.1 15.4 59.7 50 5.2 41.3
02:30 1020 30.12 850 25.1 15 58.9 50 4.6 40.4
02:35 1020 30.12 850 25.1 15.6 60 48 4.7 40.5
02:40 1020 30.12 850 25.1 16 60.8 44 3.9 39.1
02:45 1020 30.12 850 25.1 16.8 62.3 43 4.4 39.9
02:50 1020 30.12 850 25.1 16.7 62.1 46 5.1 41.2
02:55 1020 30.12 850 25.1 16.8 62.2 43 4.2 39.6
03:00 1020 30.12 850 25.1 16.6 61.9 45 4.6 40.2
03:05 1020 30.12 850 25.1 16.4 61.5 44 4.2 39.6
03:10 1020 30.12 850 25.1 16.3 61.4 45 4.5 40
03:15 1020 30.12 850 25.1 16.5 61.6 45 4.7 40.5
03:20 1020 30.12 850 25.1 16.4 61.6 44 4.4 39.9
03:25 1020 30.12 850 25.1 16.1 61 47 4.9 40.7
03:30 1020 30.12 850 25.1 15.8 60.4 49 5.2 41.3
03:35 1020 30.12 850 25.1 15.6 60.1 50 5.4 41.7
03:40 1020 30.12 850 25.1 15.5 59.9 52 5.7 42.3
03:45 1020 30.12 850 25.1 15.6 60 51 5.6 42.1
03:50 1020 30.12 850 25.1 15.5 59.9 51 5.5 41.8
03:55 1020 30.12 850 25.1 15.5 59.9 50 5.3 41.6
04:00 1020 30.12 850 25.1 15.3 59.5 50 5.1 41.2
04:05 1020 30.12 850 25.1 15.3 59.5 50 4.9 40.8
04:10 1020 30.12 850 25.1 15.3 59.6 48 4.6 40.2
04:15 1020 30.12 850 25.1 15.4 59.7 49 4.8 40.7
04:20 1020 30.12 850 25.1 15.2 59.3 50 4.9 40.8
04:25 1020 30.12 850 25.1 15.2 59.3 50 4.9 40.8
04:30 1020 30.12 850 25.1 15.2 59.3 50 4.9 40.8
04:35 1020 30.12 850 25.1 15 58.9 51 5.1 41.2
04:40 1020 30.12 850 25.1 15.1 59.2 53 5.7 42.3
04:45 1020 30.12 850 25.1 15 59 52 5.3 41.5
04:50 1020 30.12 849 25.07 14.9 58.7 52 5.2 41.3
04:55 1020 30.12 849 25.07 15 58.9 49 4.4 39.9
05:00 1020 30.12 849 25.07 15.3 59.6 48 4.6 40.3
05:05 1020 30.12 850 25.1 15.5 59.8 47 4.4 39.9
05:10 1020 30.12 850 25.1 15.6 60.1 49 5.1 41.1
05:15 1020 30.12 850 25.1 15 59 53 5.5 41.9
05:20 1020 30.12 850 25.1 14.4 57.8 54 5.4 41.7
05:25 1020 30.12 850 25.1 14.1 57.3 54 5.1 41.2
05:30 1020 30.12 850 25.1 14.1 57.3 53 4.6 40.3
05:35 1020 30.12 850 25.1 15.3 59.5 48 4.5 40.1
05:40 1020 30.12 850 25.1 15.3 59.5 49 4.7 40.4
05:45 1020 30.12 850 25.1 15.1 59.1 49 4.4 40
05:50 1020 30.12 850 25.1 15.1 59.1 51 5 41
05:55 1020 30.12 850 25.1 14.9 58.8 51 4.9 40.9
06:00 1020 30.12 850 25.1 14.5 58.1 53 5 41.1
06:05 1020 30.12 850 25.1 14.6 58.2 52 4.8 40.6
06:10 1020 30.12 850 25.1 14.6 58.2 52 4.8 40.7
06:15 1020 30.12 850 25.1 14.3 57.8 54 5.1 41.2
06:20 1020 30.12 850 25.1 14.1 57.5 53 4.9 40.8
06:25 1020 30.12 850 25.1 14.2 57.5 53 4.9 40.8
06:30 1020 30.12 850 25.1 14.4 57.9 52 4.7 40.4
06:35 1020 30.12 850 25.1 14.6 58.2 54 5.5 41.9
06:40 1020 30.12 850 25.1 14.3 57.7 53 5 41
06:45 1020 30.12 850 25.1 14.5 58.1 52 4.8 40.7
06:50 1020 30.12 850 25.1 14.6 58.3 53 5.1 41.2
06:55 1020 30.12 850 25.1 14.5 58.1 55 5.6 42.1
07:00 1020 30.12 850 25.1 14.5 58.1 55 5.6 42.1
07:05 1020 30.12 850 25.1 14.6 58.2 53 5.1 41.2
07:10 1020 30.12 850 25.1 14.9 58.8 53 5.4 41.7
07:15 1020 30.12 850 25.1 15.1 59.2 53 5.6 42.1
07:20 1020 30.12 850 25.1 15.2 59.4 53 5.7 42.2
07:25 1020 30.12 850 25.1 15.4 59.8 52 5.8 42.4
07:30 1020 30.12 850 25.1 15.8 60.4 52 6 42.7
07:35 1020 30.12 850 25.1 15.8 60.5 51 5.9 42.7
07:40 1021 30.15 850 25.1 15.9 60.6 54 6.6 43.9
07:45 1021 30.15 850 25.1 15.9 60.7 54 6.6 43.9
07:50 1020 30.12 850 25.1 16.2 61.1 52 6.3 43.4
07:55 1021 30.15 850 25.1 16.5 61.6 51 6.4 43.5
08:00 1021 30.15 850 25.1 16.9 62.4 55 8 46.3
08:05 1021 30.15 850 25.1 17.3 63.1 50 7 44.6
08:10 1021 30.15 850 25.1 17.4 63.4 49 6.8 44.2
08:15 1021 30.15 850 25.1 17.8 64 48 6.7 44.1
08:20 1021 30.15 850 25.1 18.3 64.9 46 6.6 43.9
08:25 1021 30.15 850 25.1 18.9 65.9 49 8 46.4
08:30 1021 30.15 850 25.1 19.5 67.1 45 7.5 45.5
08:35 1021 30.15 850 25.1 20 68 43 7.2 45
08:40 1020 30.12 850 25.1 20.5 68.8 42 7.3 45.2
08:45 1020 30.12 850 25.1 21 69.7 41 7.4 45.3
08:50 1020 30.12 850 25.1 21 69.8 39 6.9 44.3
08:55 1020 30.12 850 25.1 21.2 70.1 40 7.3 45.1
09:00 1020 30.12 850 25.1 21.7 71 38 7.1 44.8
09:05 1020 30.12 850 25.1 21.5 70.6 38 6.8 44.2
09:10 1020 30.12 850 25.1 21.5 70.7 39 7.3 45.1
09:15 1020 30.12 850 25.1 22 71.5 36 6.4 43.5
09:20 1020 30.12 850 25.1 22.2 71.9 33 5.4 41.8
09:25 1020 30.12 850 25.1 21.8 71.2 37 6.4 43.6
09:30 1020 30.12 850 25.1 21.7 71.1 32 4.4 39.9
09:35 1020 30.12 850 25.1 21.3 70.3 38 6.5 43.7
09:40 1020 30.12 849 25.07 22 71.6 33 5.3 41.6
09:45 1020 30.12 849 25.07 22.8 73 33 5.7 42.2
09:50 1020 30.12 849 25.07 22.7 72.8 33 5.6 42.1
09:55 1020 30.12 849 25.07 23 73.4 33 6 42.8
10:00 1020 30.12 849 25.07 23.5 74.3 31 5.9 42.5
10:05 1020 30.12 849 25.07 23.9 75.1 32 6.3 43.4
10:10 1020 30.12 849 25.07 24.1 75.3 33 7 44.6
10:15 1020 30.12 849 25.07 24.3 75.8 31 6.2 43.1
10:20 1020 30.12 849 25.07 24.7 76.5 31 6.6 43.9
10:25 1020 30.12 849 25.07 24.3 75.7 33 7.4 45.3
10:30 1020 30.12 849 25.07 23.5 74.2 32 6.3 43.3
10:35 1020 30.12 849 25.07 23.7 74.7 33 6.6 43.8
10:40 1020 30.12 849 25.07 23.4 74.2 33 6.3 43.4
10:45 1020 30.12 849 25.07 24.1 75.3 30 5.8 42.4
10:50 1020 30.12 849 25.07 24.8 76.6 30 6.1 42.9
10:55 1020 30.12 849 25.07 23.5 74.3 31 5.7 42.2
11:00 1020 30.12 849 25.07 23.2 73.7 35 7.1 44.8
11:05 1020 30.12 849 25.07 23.2 73.7 33 6.2 43.1
11:10 1020 30.12 849 25.07 23.7 74.7 34 7.2 44.9
11:15 1020 30.12 849 25.07 24.6 76.3 32 6.9 44.4
11:20 1020 30.12 849 25.07 25.1 77.1 31 7 44.5
11:25 1020 30.12 849 25.07 25.2 77.3 32 7.7 45.9
11:30 1020 30.12 849 25.07 25 77 31 7.1 44.7
11:35 1020 30.12 849 25.07 25.6 78.1 28 6.2 43.2
11:40 1020 30.12 849 25.07 26.4 79.4 30 7.6 45.7
11:45 1020 30.12 849 25.07 26.6 80 28 6.7 44
11:50 1020 30.12 849 25.07 26.7 80.1 26 6.1 42.9
11:55 1020 30.12 849 25.07 26.4 79.6 27 6.4 43.6
12:00 1020 30.12 849 25.07 26.3 79.4 27 6.2 43.1
12:05 1020 30.12 849 25.07 26.5 79.7 26 5.6 42.1
12:10 1020 30.12 849 25.07 27.1 80.8 25 5.6 42.1
12:15 1020 30.12 849 25.07 28.1 82.5 21 4.3 39.8
12:20 1020 30.12 849 25.07 28.1 82.5 23 5.1 41.2
12:25 1020 30.12 849 25.07 27.3 81.1 25 5.8 42.4
12:30 1020 30.12 849 25.07 27.6 81.8 23 4.9 40.8
12:35 1020 30.12 849 25.07 27.9 82.2 23 5.1 41.1
12:40 1020 30.12 849 25.07 27.9 82.3 23 5.2 41.4
12:45 1020 30.12 849 25.07 27.5 81.5 22 4.4 39.8
12:50 1020 30.12 849 25.07 27.5 81.4 23 4.6 40.3
12:55 1019 30.09 849 25.07 27.4 81.4 24 5.6 42.1
13:00 1019 30.09 849 25.07 27.4 81.4 26 6.5 43.7
13:05 1019 30.09 848 25.04 27.8 82 25 6.4 43.6
13:10 1019 30.09 848 25.04 28.2 82.7 24 6.1 43
13:15 1019 30.09 848 25.04 27.8 82 26 6.7 44.1
13:20 1019 30.09 848 25.04 27.4 81.4 24 5.4 41.7
13:25 1019 30.09 848 25.04 27.6 81.6 25 5.9 42.6
13:30 1019 30.09 848 25.04 28.3 82.9 23 5.6 42.1
13:35 1019 30.09 848 25.04 29.3 84.8 23 6.6 44
13:40 1019 30.09 848 25.04 29.2 84.6 23 6.6 43.8
13:45 1019 30.09 848 25.04 29 84.2 24 7 44.7
13:50 1019 30.09 848 25.04 29.2 84.5 24 6.7 44
13:55 1019 30.09 848 25.04 29.1 84.3 23 6 42.8
14:00 1019 30.09 848 25.04 28.2 82.7 25 6.8 44.3
14:05 1019 30.09 848 25.04 28.3 82.9 22 5 41
14:10 1019 30.09 848 25.04 29.5 85.2 21 5.5 41.8
14:15 1019 30.09 848 25.04 30.6 87.1 21 6.3 43.3
14:20 1019 30.09 848 25.04 30.4 86.8 21 5.8 42.5
14:25 1019 30.09 848 25.04 30.1 86.1 21 5.5 41.9
14:30 1019 30.09 848 25.04 30.2 86.3 20 5.2 41.4
14:35 1019 30.09 848 25.04 30.4 86.7 21 5.7 42.3
14:40 1018 30.06 848 25.04 30.2 86.3 22 6.3 43.3
14:45 1018 30.06 848 25.04 30 85.9 21 5.9 42.6
14:50 1018 30.06 848 25.04 29.6 85.2 22 6.1 43
14:55 1018 30.06 848 25.04 29.8 85.6 21 5.3 41.6
15:00 1018 30.06 848 25.04 30.5 86.8 20 5.2 41.4
15:05 1018 30.06 847 25.01 30.6 87.1 21 5.9 42.6
15:10 1018 30.06 847 25.01 30.3 86.5 20 5 41
15:15 1018 30.06 847 25.01 30.5 86.9 21 6 42.7
15:20 1018 30.06 847 25.01 30.4 86.8 19 4.8 40.7
15:25 1018 30.06 847 25.01 30.8 87.4 20 5.4 41.7
15:30 1018 30.06 847 25.01 30.9 87.6 19 5.2 41.4
15:35 1018 30.06 847 25.01 31.1 87.9 19 4.9 40.8
15:40 1018 30.06 847 25.01 31.1 88 19 5.1 41.2
15:45 1018 30.06 847 25.01 31.1 88.1 19 5.4 41.6
15:50 1018 30.06 847 25.01 30.6 87 19 4.7 40.4
15:55 1018 30.06 847 25.01 30.5 86.9 18 4.2 39.5
16:00 1018 30.06 847 25.01 31.1 87.9 18 4.5 40.1
16:05 1018 30.06 847 25.01 31.3 88.4 17 3.6 38.5
16:10 1018 30.06 847 25.01 31.5 88.7 16 3.2 37.7
16:15 1018 30.06 847 25.01 31.4 88.6 15 2.4 36.3
16:20 1018 30.06 847 25.01 31.7 89.1 15 2.3 36.2
16:25 1017 30.03 847 25.01 31.6 88.8 17 4.2 39.6
16:30 1017 30.03 847 25.01 31.7 89.1 15 2 35.5
16:35 1017 30.03 847 25.01 31 87.9 16 2.2 36
16:40 1017 30.03 847 25.01 30.6 87.1 16 2.1 35.8
16:45 1017 30.03 847 25.01 31.2 88.1 15 2.1 35.8
16:50 1017 30.03 846 24.98 31.3 88.3 16 2.4 36.4
16:55 1017 30.03 846 24.98 31.2 88.2 15 2.3 36.2
17:00 1017 30.03 846 24.98 31.4 88.6 15 2.2 36
17:05 1017 30.03 846 24.98 31.6 88.9 15 2.1 35.7
17:10 1017 30.03 846 24.98 30.9 87.6 15 2 35.6
17:15 1017 30.03 846 24.98 30.1 86.2 16 1.5 34.7
17:20 1017 30.03 846 24.98 30.2 86.4 16 2.3 36.2
17:25 1017 30.03 846 24.98 30.4 86.7 16 1.8 35.3
17:30 1017 30.03 846 24.98 31.2 88.2 15 1.7 35
17:35 1017 30.03 846 24.98 31.5 88.8 14 1.5 34.7
17:40 1017 30.03 846 24.98 30.9 87.5 15 1.3 34.4
17:45 1017 30.03 846 24.98 30.7 87.2 15 1.7 35.1
17:50 1017 30.03 846 24.98 31.5 88.7 15 1.8 35.2
17:55 1017 30.03 846 24.98 31.7 89.1 14 1.7 35
18:00 1017 30.03 846 24.98 32 89.5 14 1.4 34.5
18:05 1017 30.03 846 24.98 31.6 88.9 15 1.8 35.2
18:10 1017 30.03 846 24.98 31.9 89.4 13 0.7 33.2
18:15 1017 30.03 846 24.98 32.2 89.9 13 1 33.8
18:20 1017 30.03 846 24.98 31.7 89 14 1.8 35.2
18:25 1017 30.03 846 24.98 31.5 88.6 14 1.5 34.7
18:30 1017 30.03 846 24.98 30.9 87.7 15 1.5 34.8
18:35 1017 30.03 846 24.98 31 87.8 14 1.1 34
18:40 1017 30.03 846 24.98 31.5 88.6 14 1.5 34.7
18:45 1017 30.03 846 24.98 31.8 89.3 15 2 35.7
18:50 1017 30.03 846 24.98 31.7 89 14 1.4 34.6
18:55 1017 30.03 846 24.98 31.9 89.5 14 2 35.5
19:00 1017 30.03 846 24.98 31.2 88.1 15 1.5 34.8
19:05 1017 30.03 846 24.98 30.8 87.5 15 1.9 35.4
19:10 1017 30.03 846 24.98 30.6 87 15 1.5 34.7
19:15 1017 30.03 846 24.98 30.8 87.4 15 1.9 35.4
19:20 1017 30.03 846 24.98 30.6 87 16 1.9 35.4
19:25 1017 30.03 846 24.98 30.2 86.3 15 1.4 34.5
19:30 1017 30.03 846 24.98 30 86.1 16 1.9 35.5
19:35 1017 30.03 846 24.98 29.9 85.8 15 1 33.8
19:40 1017 30.03 846 24.98 29.8 85.7 15 0.9 33.6
19:45 1017 30.03 846 24.98 29.8 85.7 16 1.6 34.8
19:50 1017 30.03 846 24.98 29.7 85.5 16 1.5 34.7
19:55 1016 30 846 24.98 29.7 85.4 15 0.9 33.6
20:00 1016 30 846 24.98 29.6 85.3 17 2.3 36.1
20:05 1016 30 846 24.98 29.5 85.1 15 0.8 33.4
20:10 1016 30 846 24.98 29.4 84.9 16 1.3 34.4
20:15 1016 30 846 24.98 29.2 84.6 21 4.7 40.4
20:20 1016 30 846 24.98 29 84.2 23 6.2 43.1
20:25 1016 30 846 24.98 28.8 83.8 25 7.3 45.1
20:30 1016 30 846 24.98 28.2 82.8 28 8.4 47.2
20:35 1016 30 846 24.98 27.4 81.4 31 9.2 48.5
20:40 1017 30.03 846 24.98 26.9 80.3 31 8.4 47.2
20:45 1017 30.03 846 24.98 26.5 79.7 35 10 50
20:50 1017 30.03 846 24.98 25.9 78.6 35 9.4 48.9
20:55 1017 30.03 846 24.98 25.3 77.5 38 10.1 50.2
21:00 1017 30.03 846 24.98 24.9 76.7 36 8.8 47.9
21:05 1017 30.03 846 24.98 24.5 76 35 8.1 46.6
21:10 1017 30.03 846 24.98 24 75.1 35 7.6 45.7
21:15 1017 30.03 846 24.98 23.5 74.3 38 8.6 47.4
21:20 1017 30.03 846 24.98 22.9 73.2 40 8.8 47.8
21:25 1017 30.03 846 24.98 22.1 71.8 43 9.1 48.4
21:30 1017 30.03 846 24.98 21.7 71 42 8.2 46.8
21:35 1017 30.03 846 24.98 21.6 70.9 38 6.9 44.3
21:40 1017 30.03 846 24.98 21.6 70.8 39 7.2 44.9
21:45 1017 30.03 846 24.98 21.3 70.4 37 6.4 43.4
21:50 1017 30.03 846 24.98 21.4 70.4 35 5.4 41.7
21:55 1017 30.03 846 24.98 21.5 70.8 34 5.2 41.4
22:00 1017 30.03 846 24.98 21.6 70.9 33 4.8 40.6
22:05 1017 30.03 846 24.98 21.7 71.1 33 4.8 40.6
22:10 1017 30.03 846 24.98 21.8 71.2 32 4.7 40.4
22:15 1017 30.03 846 24.98 21.7 71.1 32 4.5 40.1
22:20 1017 30.03 846 24.98 21.6 71 32 4.5 40.1
22:25 1017 30.03 846 24.98 21.3 70.3 34 4.8 40.7
22:30 1017 30.03 846 24.98 20.9 69.7 34 4.6 40.3
22:35 1017 30.03 846 24.98 20.8 69.5 33 4.2 39.5
22:40 1017 30.03 846 24.98 20.9 69.7 33 4 39.3
22:45 1017 30.03 846 24.98 20.8 69.4 33 4.3 39.8
22:50 1017 30.03 846 24.98 20.7 69.2 34 4.3 39.7
22:55 1017 30.03 846 24.98 20.4 68.8 34 4.1 39.5
23:00 1017 30.03 846 24.98 20.3 68.6 37 5.3 41.6
23:05 1017 30.03 846 24.98 20 68 35 4.4 39.9
23:10 1017 30.03 847 25.01 20.1 68.1 36 4.7 40.5
23:15 1017 30.03 847 25.01 20.2 68.4 32 3 37.5
23:20 1017 30.03 846 24.98 20.7 69.2 32 3.4 38.2
23:25 1017 30.03 846 24.98 21 69.9 33 4.5 40.1
23:30 1017 30.03 846 24.98 20.9 69.6 31 3.5 38.3
23:35 1017 30.03 846 24.98 21.2 70.1 30 3 37.5
23:40 1017 30.03 846 24.98 21.3 70.4 30 3.1 37.6
23:45 1017 30.03 846 24.98 21.2 70.2 33 4.4 39.9
23:50 1017 30.03 846 24.98 20.7 69.3 34 4.6 40.3
23:55 1017 30.03 846 24.98 19.9 67.9 33 3.5 38.4
24:00 1017 30.03 846 24.98 19.9 67.7 35 4.3 39.7